sensor_id;sensor_type;location;lat;lon;timestamp;temperature;humidity
9049;DHT22;4559;47.252;9.592;2022-09-06T00:02:22;19.90;99.90
9049;DHT22;4559;47.252;9.592;2022-09-06T00:04:48;19.90;99.90
9049;DHT22;4559;47.252;9.592;2022-09-06T00:07:14;19.80;99.90
9049;DHT22;4559;47.252;9.592;2022-09-06T00:09:39;19.80;99.90
9049;DHT22;4559;47.252;9.592;2022-09-06T00:12:05;19.90;99.90
9049;DHT22;4559;47.252;9.592;2022-09-06T00:14:31;19.80;99.90
9049;DHT22;4559;47.252;9.592;2022-09-06T00:16:56;19.80;99.90
9049;DHT22;4559;47.252;9.592;2022-09-06T00:19:22;19.80;99.90
9049;DHT22;4559;47.252;9.592;2022-09-06T00:21:47;19.90;99.90
9049;DHT22;4559;47.252;9.592;2022-09-06T00:24:13;19.90;99.90
9049;DHT22;4559;47.252;9.592;2022-09-06T00:26:39;19.80;99.90
9049;DHT22;4559;47.252;9.592;2022-09-06T00:29:04;19.80;99.90
9049;DHT22;4559;47.252;9.592;2022-09-06T00:31:30;19.80;99.90
9049;DHT22;4559;47.252;9.592;2022-09-06T00:33:56;19.80;99.90
9049;DHT22;4559;47.252;9.592;2022-09-06T00:36:23;19.90;99.90
9049;DHT22;4559;47.252;9.592;2022-09-06T00:38:48;19.90;99.90
9049;DHT22;4559;47.252;9.592;2022-09-06T00:41:15;20.00;99.90
9049;DHT22;4559;47.252;9.592;2022-09-06T00:43:41;20.00;99.90
9049;DHT22;4559;47.252;9.592;2022-09-06T00:46:09;20.00;99.90
9049;DHT22;4559;47.252;9.592;2022-09-06T00:48:37;20.00;99.90
9049;DHT22;4559;47.252;9.592;2022-09-06T00:51:07;20.10;99.90
9049;DHT22;4559;47.252;9.592;2022-09-06T00:53:35;20.20;99.90
9049;DHT22;4559;47.252;9.592;2022-09-06T00:56:01;20.20;99.90
9049;DHT22;4559;47.252;9.592;2022-09-06T00:58:27;20.20;99.90
9049;DHT22;4559;47.252;9.592;2022-09-06T01:00:53;20.20;99.90
9049;DHT22;4559;47.252;9.592;2022-09-06T01:03:20;20.20;99.90
9049;DHT22;4559;47.252;9.592;2022-09-06T01:08:45;20.10;99.90
9049;DHT22;4559;47.252;9.592;2022-09-06T01:14:30;20.10;99.90
9049;DHT22;4559;47.252;9.592;2022-09-06T01:19:44;20.20;99.90
9049;DHT22;4559;47.252;9.592;2022-09-06T01:25:44;20.20;99.90
9049;DHT22;4559;47.252;9.592;2022-09-06T01:28:38;20.20;99.90
9049;DHT22;4559;47.252;9.592;2022-09-06T01:39:34;20.20;99.90
9049;DHT22;4559;47.252;9.592;2022-09-06T01:42:22;20.20;99.90
9049;DHT22;4559;47.252;9.592;2022-09-06T01:44:59;20.20;99.90
9049;DHT22;4559;47.252;9.592;2022-09-06T01:50:44;20.10;99.90
9049;DHT22;4559;47.252;9.592;2022-09-06T01:53:31;20.00;99.90
9049;DHT22;4559;47.252;9.592;2022-09-06T01:58:51;19.90;99.90
9049;DHT22;4559;47.252;9.592;2022-09-06T02:04:09;19.80;99.90
9049;DHT22;4559;47.252;9.592;2022-09-06T02:07:02;19.80;99.90
9049;DHT22;4559;47.252;9.592;2022-09-06T02:09:29;19.80;99.90
9049;DHT22;4559;47.252;9.592;2022-09-06T02:12:00;19.70;99.90
9049;DHT22;4559;47.252;9.592;2022-09-06T02:14:35;19.70;99.90
9049;DHT22;4559;47.252;9.592;2022-09-06T02:17:03;19.70;99.90
9049;DHT22;4559;47.252;9.592;2022-09-06T02:19:43;19.60;99.90
9049;DHT22;4559;47.252;9.592;2022-09-06T02:22:13;19.60;99.90
9049;DHT22;4559;47.252;9.592;2022-09-06T02:24:41;19.60;99.90
9049;DHT22;4559;47.252;9.592;2022-09-06T02:27:07;19.60;99.90
9049;DHT22;4559;47.252;9.592;2022-09-06T02:29:34;19.60;99.90
9049;DHT22;4559;47.252;9.592;2022-09-06T02:32:15;19.60;99.90
9049;DHT22;4559;47.252;9.592;2022-09-06T02:34:42;19.60;99.90
9049;DHT22;4559;47.252;9.592;2022-09-06T02:37:11;19.60;99.90
9049;DHT22;4559;47.252;9.592;2022-09-06T02:39:38;19.70;99.90
9049;DHT22;4559;47.252;9.592;2022-09-06T02:42:04;19.70;99.90
9049;DHT22;4559;47.252;9.592;2022-09-06T02:44:30;19.70;99.90
9049;DHT22;4559;47.252;9.592;2022-09-06T02:46:57;19.80;99.90
9049;DHT22;4559;47.252;9.592;2022-09-06T02:49:23;19.80;99.90
9049;DHT22;4559;47.252;9.592;2022-09-06T02:51:48;19.80;99.90
9049;DHT22;4559;47.252;9.592;2022-09-06T02:54:15;19.70;99.90
9049;DHT22;4559;47.252;9.592;2022-09-06T02:56:40;19.60;99.90
9049;DHT22;4559;47.252;9.592;2022-09-06T02:59:06;19.60;99.90
9049;DHT22;4559;47.252;9.592;2022-09-06T03:01:32;19.70;99.90
9049;DHT22;4559;47.252;9.592;2022-09-06T03:03:58;19.60;99.90
9049;DHT22;4559;47.252;9.592;2022-09-06T03:06:24;19.50;99.90
9049;DHT22;4559;47.252;9.592;2022-09-06T03:08:50;19.50;99.90
9049;DHT22;4559;47.252;9.592;2022-09-06T03:11:15;19.60;99.90
9049;DHT22;4559;47.252;9.592;2022-09-06T03:13:41;19.50;99.90
9049;DHT22;4559;47.252;9.592;2022-09-06T03:16:07;19.50;99.90
9049;DHT22;4559;47.252;9.592;2022-09-06T03:18:33;19.50;99.90
9049;DHT22;4559;47.252;9.592;2022-09-06T03:20:59;19.50;99.90
9049;DHT22;4559;47.252;9.592;2022-09-06T03:23:27;19.40;99.90
9049;DHT22;4559;47.252;9.592;2022-09-06T03:25:53;19.30;99.90
9049;DHT22;4559;47.252;9.592;2022-09-06T03:28:19;19.30;99.90
9049;DHT22;4559;47.252;9.592;2022-09-06T03:30:47;19.20;99.90
9049;DHT22;4559;47.252;9.592;2022-09-06T03:33:13;19.20;99.90
9049;DHT22;4559;47.252;9.592;2022-09-06T03:35:39;19.20;99.90
9049;DHT22;4559;47.252;9.592;2022-09-06T03:38:06;19.20;99.90
9049;DHT22;4559;47.252;9.592;2022-09-06T03:40:32;19.20;99.90
9049;DHT22;4559;47.252;9.592;2022-09-06T03:42:57;19.20;99.90
9049;DHT22;4559;47.252;9.592;2022-09-06T03:45:23;19.20;99.90
9049;DHT22;4559;47.252;9.592;2022-09-06T03:47:48;19.10;99.90
9049;DHT22;4559;47.252;9.592;2022-09-06T03:50:14;18.90;99.90
9049;DHT22;4559;47.252;9.592;2022-09-06T03:52:40;18.80;99.90
9049;DHT22;4559;47.252;9.592;2022-09-06T03:55:06;18.80;99.90
9049;DHT22;4559;47.252;9.592;2022-09-06T03:57:32;18.90;99.90
9049;DHT22;4559;47.252;9.592;2022-09-06T03:59:57;18.90;99.90
9049;DHT22;4559;47.252;9.592;2022-09-06T04:02:23;18.90;99.90
9049;DHT22;4559;47.252;9.592;2022-09-06T04:04:50;18.90;99.90
9049;DHT22;4559;47.252;9.592;2022-09-06T04:07:20;18.90;99.90
9049;DHT22;4559;47.252;9.592;2022-09-06T04:09:47;18.90;99.90
9049;DHT22;4559;47.252;9.592;2022-09-06T04:12:12;18.90;99.90
9049;DHT22;4559;47.252;9.592;2022-09-06T04:14:38;18.90;99.90
9049;DHT22;4559;47.252;9.592;2022-09-06T04:17:03;18.90;99.90
9049;DHT22;4559;47.252;9.592;2022-09-06T04:19:29;18.80;99.90
9049;DHT22;4559;47.252;9.592;2022-09-06T04:21:54;18.80;99.90
9049;DHT22;4559;47.252;9.592;2022-09-06T04:24:20;18.80;99.90
9049;DHT22;4559;47.252;9.592;2022-09-06T04:26:46;18.80;99.90
9049;DHT22;4559;47.252;9.592;2022-09-06T04:29:11;18.80;99.90
9049;DHT22;4559;47.252;9.592;2022-09-06T04:31:37;18.80;99.90
9049;DHT22;4559;47.252;9.592;2022-09-06T04:34:02;18.80;99.90
9049;DHT22;4559;47.252;9.592;2022-09-06T04:36:28;18.80;99.90
9049;DHT22;4559;47.252;9.592;2022-09-06T04:38:54;18.60;99.90
9049;DHT22;4559;47.252;9.592;2022-09-06T04:41:20;18.60;99.90
9049;DHT22;4559;47.252;9.592;2022-09-06T04:43:46;18.50;99.90
9049;DHT22;4559;47.252;9.592;2022-09-06T04:46:19;18.50;99.90
9049;DHT22;4559;47.252;9.592;2022-09-06T04:48:46;18.40;99.90
9049;DHT22;4559;47.252;9.592;2022-09-06T04:51:12;18.30;99.90
9049;DHT22;4559;47.252;9.592;2022-09-06T04:53:38;18.30;99.90
9049;DHT22;4559;47.252;9.592;2022-09-06T04:56:04;18.20;99.90
9049;DHT22;4559;47.252;9.592;2022-09-06T04:58:29;18.30;99.90
9049;DHT22;4559;47.252;9.592;2022-09-06T05:00:55;18.30;99.90
9049;DHT22;4559;47.252;9.592;2022-09-06T05:03:21;18.20;99.90
9049;DHT22;4559;47.252;9.592;2022-09-06T05:05:46;18.20;99.90
9049;DHT22;4559;47.252;9.592;2022-09-06T05:08:12;18.20;99.90
9049;DHT22;4559;47.252;9.592;2022-09-06T05:10:37;18.20;99.90
9049;DHT22;4559;47.252;9.592;2022-09-06T05:13:03;18.10;99.90
9049;DHT22;4559;47.252;9.592;2022-09-06T05:15:29;18.20;99.90
9049;DHT22;4559;47.252;9.592;2022-09-06T05:18:01;18.20;99.90
9049;DHT22;4559;47.252;9.592;2022-09-06T05:20:28;18.10;99.90
9049;DHT22;4559;47.252;9.592;2022-09-06T05:22:53;18.10;99.90
9049;DHT22;4559;47.252;9.592;2022-09-06T05:25:19;18.10;99.90
9049;DHT22;4559;47.252;9.592;2022-09-06T05:27:45;18.00;99.90
9049;DHT22;4559;47.252;9.592;2022-09-06T05:30:11;17.90;99.90
9049;DHT22;4559;47.252;9.592;2022-09-06T05:32:37;18.00;99.90
9049;DHT22;4559;47.252;9.592;2022-09-06T05:35:03;18.10;99.90
9049;DHT22;4559;47.252;9.592;2022-09-06T05:37:28;18.20;99.90
9049;DHT22;4559;47.252;9.592;2022-09-06T05:39:54;18.20;99.90
9049;DHT22;4559;47.252;9.592;2022-09-06T05:42:19;18.20;99.90
9049;DHT22;4559;47.252;9.592;2022-09-06T05:44:45;18.30;99.90
9049;DHT22;4559;47.252;9.592;2022-09-06T05:47:11;18.30;99.90
9049;DHT22;4559;47.252;9.592;2022-09-06T05:49:36;18.30;99.90
9049;DHT22;4559;47.252;9.592;2022-09-06T05:52:02;18.30;99.90
9049;DHT22;4559;47.252;9.592;2022-09-06T05:54:28;18.30;99.90
9049;DHT22;4559;47.252;9.592;2022-09-06T05:56:53;18.40;99.90
9049;DHT22;4559;47.252;9.592;2022-09-06T05:59:19;18.40;99.90
9049;DHT22;4559;47.252;9.592;2022-09-06T06:01:49;18.40;99.90
9049;DHT22;4559;47.252;9.592;2022-09-06T06:04:15;18.50;99.90
9049;DHT22;4559;47.252;9.592;2022-09-06T06:06:40;18.50;99.90
9049;DHT22;4559;47.252;9.592;2022-09-06T06:09:06;18.50;99.90
9049;DHT22;4559;47.252;9.592;2022-09-06T06:11:32;18.60;99.90
9049;DHT22;4559;47.252;9.592;2022-09-06T06:13:57;18.50;99.90
9049;DHT22;4559;47.252;9.592;2022-09-06T06:16:23;18.60;99.90
9049;DHT22;4559;47.252;9.592;2022-09-06T06:18:50;18.60;99.90
9049;DHT22;4559;47.252;9.592;2022-09-06T06:21:19;18.60;99.90
9049;DHT22;4559;47.252;9.592;2022-09-06T06:23:49;18.70;99.90
9049;DHT22;4559;47.252;9.592;2022-09-06T06:26:15;18.70;99.90
9049;DHT22;4559;47.252;9.592;2022-09-06T06:28:40;18.70;99.90
9049;DHT22;4559;47.252;9.592;2022-09-06T06:31:07;18.80;99.90
9049;DHT22;4559;47.252;9.592;2022-09-06T06:33:33;18.80;99.90
9049;DHT22;4559;47.252;9.592;2022-09-06T06:38:36;18.80;99.90
9049;DHT22;4559;47.252;9.592;2022-09-06T06:41:03;18.90;99.90
9049;DHT22;4559;47.252;9.592;2022-09-06T06:43:29;19.00;99.90
9049;DHT22;4559;47.252;9.592;2022-09-06T06:46:05;19.00;99.90
9049;DHT22;4559;47.252;9.592;2022-09-06T06:48:31;19.10;99.90
9049;DHT22;4559;47.252;9.592;2022-09-06T06:50:57;19.20;99.90
9049;DHT22;4559;47.252;9.592;2022-09-06T06:53:23;19.30;99.90
9049;DHT22;4559;47.252;9.592;2022-09-06T06:55:48;19.30;99.90
9049;DHT22;4559;47.252;9.592;2022-09-06T06:58:15;19.40;99.90
9049;DHT22;4559;47.252;9.592;2022-09-06T07:00:41;19.30;99.90
9049;DHT22;4559;47.252;9.592;2022-09-06T07:03:07;19.30;99.90
9049;DHT22;4559;47.252;9.592;2022-09-06T07:05:33;19.40;99.90
9049;DHT22;4559;47.252;9.592;2022-09-06T07:07:59;19.40;99.90
9049;DHT22;4559;47.252;9.592;2022-09-06T07:10:25;19.50;99.90
9049;DHT22;4559;47.252;9.592;2022-09-06T07:12:50;19.50;99.90
9049;DHT22;4559;47.252;9.592;2022-09-06T07:15:17;19.50;99.90
9049;DHT22;4559;47.252;9.592;2022-09-06T07:17:43;19.50;99.90
9049;DHT22;4559;47.252;9.592;2022-09-06T07:20:09;19.40;99.90
9049;DHT22;4559;47.252;9.592;2022-09-06T07:22:35;19.50;99.90
9049;DHT22;4559;47.252;9.592;2022-09-06T07:25:02;19.50;99.90
9049;DHT22;4559;47.252;9.592;2022-09-06T07:27:28;19.60;99.90
9049;DHT22;4559;47.252;9.592;2022-09-06T07:29:53;19.60;99.90
9049;DHT22;4559;47.252;9.592;2022-09-06T07:32:19;19.80;99.90
9049;DHT22;4559;47.252;9.592;2022-09-06T07:34:45;19.90;99.90
9049;DHT22;4559;47.252;9.592;2022-09-06T07:37:10;20.00;99.90
9049;DHT22;4559;47.252;9.592;2022-09-06T07:39:36;20.10;99.90
9049;DHT22;4559;47.252;9.592;2022-09-06T07:42:03;20.20;99.90
9049;DHT22;4559;47.252;9.592;2022-09-06T07:44:29;20.20;99.90
9049;DHT22;4559;47.252;9.592;2022-09-06T07:46:54;20.40;99.90
9049;DHT22;4559;47.252;9.592;2022-09-06T07:49:20;20.60;99.90
9049;DHT22;4559;47.252;9.592;2022-09-06T07:51:47;20.90;99.90
9049;DHT22;4559;47.252;9.592;2022-09-06T07:54:12;21.10;99.90
9049;DHT22;4559;47.252;9.592;2022-09-06T07:56:38;21.50;99.90
9049;DHT22;4559;47.252;9.592;2022-09-06T07:59:04;21.70;99.90
9049;DHT22;4559;47.252;9.592;2022-09-06T08:01:39;21.90;99.90
9049;DHT22;4559;47.252;9.592;2022-09-06T08:04:08;22.00;99.90
9049;DHT22;4559;47.252;9.592;2022-09-06T08:06:36;22.10;99.90
9049;DHT22;4559;47.252;9.592;2022-09-06T08:09:03;22.10;99.90
9049;DHT22;4559;47.252;9.592;2022-09-06T08:11:31;22.00;99.90
9049;DHT22;4559;47.252;9.592;2022-09-06T08:14:01;22.10;99.90
9049;DHT22;4559;47.252;9.592;2022-09-06T08:16:29;22.00;99.90
9049;DHT22;4559;47.252;9.592;2022-09-06T08:18:57;22.00;99.90
9049;DHT22;4559;47.252;9.592;2022-09-06T08:21:25;22.10;99.90
9049;DHT22;4559;47.252;9.592;2022-09-06T08:24:09;22.20;99.90
9049;DHT22;4559;47.252;9.592;2022-09-06T08:26:36;22.50;99.90
9049;DHT22;4559;47.252;9.592;2022-09-06T08:29:08;22.60;99.90
9049;DHT22;4559;47.252;9.592;2022-09-06T08:31:40;22.80;99.90
9049;DHT22;4559;47.252;9.592;2022-09-06T08:34:06;22.90;99.90
9049;DHT22;4559;47.252;9.592;2022-09-06T08:36:32;23.10;99.90
9049;DHT22;4559;47.252;9.592;2022-09-06T08:39:00;23.30;99.90
9049;DHT22;4559;47.252;9.592;2022-09-06T08:41:31;23.50;99.90
9049;DHT22;4559;47.252;9.592;2022-09-06T08:44:16;23.50;99.90
9049;DHT22;4559;47.252;9.592;2022-09-06T08:46:56;23.50;99.90
9049;DHT22;4559;47.252;9.592;2022-09-06T08:49:24;23.50;99.90
9049;DHT22;4559;47.252;9.592;2022-09-06T08:52:20;23.50;99.90
9049;DHT22;4559;47.252;9.592;2022-09-06T08:54:52;23.60;99.90
9049;DHT22;4559;47.252;9.592;2022-09-06T08:57:50;23.60;99.90
9049;DHT22;4559;47.252;9.592;2022-09-06T09:00:20;23.70;99.90
9049;DHT22;4559;47.252;9.592;2022-09-06T09:05:31;23.80;99.90
9049;DHT22;4559;47.252;9.592;2022-09-06T09:10:50;23.80;99.90
9049;DHT22;4559;47.252;9.592;2022-09-06T09:13:54;23.80;99.90
9049;DHT22;4559;47.252;9.592;2022-09-06T09:16:23;23.90;99.90
9049;DHT22;4559;47.252;9.592;2022-09-06T09:18:55;24.00;99.90
9049;DHT22;4559;47.252;9.592;2022-09-06T09:21:24;24.10;99.90
9049;DHT22;4559;47.252;9.592;2022-09-06T09:23:54;24.20;99.90
9049;DHT22;4559;47.252;9.592;2022-09-06T09:26:23;24.20;99.90
9049;DHT22;4559;47.252;9.592;2022-09-06T09:29:07;24.20;99.90
9049;DHT22;4559;47.252;9.592;2022-09-06T09:31:38;24.10;99.90
9049;DHT22;4559;47.252;9.592;2022-09-06T09:34:04;24.10;99.90
9049;DHT22;4559;47.252;9.592;2022-09-06T09:36:34;24.10;99.90
9049;DHT22;4559;47.252;9.592;2022-09-06T09:39:08;24.10;99.90
9049;DHT22;4559;47.252;9.592;2022-09-06T09:41:34;24.00;99.90
9049;DHT22;4559;47.252;9.592;2022-09-06T09:44:09;24.00;99.90
9049;DHT22;4559;47.252;9.592;2022-09-06T09:46:37;24.00;99.90
9049;DHT22;4559;47.252;9.592;2022-09-06T09:52:11;24.00;99.90
9049;DHT22;4559;47.252;9.592;2022-09-06T09:54:43;24.00;99.90
9049;DHT22;4559;47.252;9.592;2022-09-06T09:57:12;24.00;99.90
9049;DHT22;4559;47.252;9.592;2022-09-06T09:59:45;24.00;99.90
9049;DHT22;4559;47.252;9.592;2022-09-06T10:02:30;24.10;99.90
9049;DHT22;4559;47.252;9.592;2022-09-06T10:05:08;24.20;99.90
9049;DHT22;4559;47.252;9.592;2022-09-06T10:07:41;24.20;99.90
9049;DHT22;4559;47.252;9.592;2022-09-06T10:12:47;24.40;99.90
9049;DHT22;4559;47.252;9.592;2022-09-06T10:15:35;24.50;99.90
9049;DHT22;4559;47.252;9.592;2022-09-06T10:18:02;24.50;99.90
9049;DHT22;4559;47.252;9.592;2022-09-06T10:20:41;24.60;99.90
9049;DHT22;4559;47.252;9.592;2022-09-06T10:23:44;24.60;99.90
9049;DHT22;4559;47.252;9.592;2022-09-06T10:26:20;24.60;99.90
9049;DHT22;4559;47.252;9.592;2022-09-06T10:28:56;24.60;99.90
9049;DHT22;4559;47.252;9.592;2022-09-06T10:40:02;24.70;99.90
9049;DHT22;4559;47.252;9.592;2022-09-06T10:42:50;24.70;99.90
9049;DHT22;4559;47.252;9.592;2022-09-06T10:45:42;24.70;99.90
9049;DHT22;4559;47.252;9.592;2022-09-06T10:48:16;24.80;99.90
9049;DHT22;4559;47.252;9.592;2022-09-06T10:50:50;24.80;99.90
9049;DHT22;4559;47.252;9.592;2022-09-06T10:53:40;24.80;99.90
9049;DHT22;4559;47.252;9.592;2022-09-06T10:58:44;24.80;99.90
9049;DHT22;4559;47.252;9.592;2022-09-06T11:01:21;24.80;99.90
9049;DHT22;4559;47.252;9.592;2022-09-06T11:03:49;24.80;99.90
9049;DHT22;4559;47.252;9.592;2022-09-06T11:06:16;24.90;99.90
9049;DHT22;4559;47.252;9.592;2022-09-06T11:11:46;25.00;99.90
9049;DHT22;4559;47.252;9.592;2022-09-06T11:14:13;25.20;99.90
9049;DHT22;4559;47.252;9.592;2022-09-06T11:16:55;25.40;99.90
9049;DHT22;4559;47.252;9.592;2022-09-06T11:20:28;25.60;99.90
9049;DHT22;4559;47.252;9.592;2022-09-06T11:27:34;26.20;99.90
9049;DHT22;4559;47.252;9.592;2022-09-06T11:30:02;26.30;99.90
9049;DHT22;4559;47.252;9.592;2022-09-06T11:32:42;26.40;99.90
9049;DHT22;4559;47.252;9.592;2022-09-06T11:35:22;26.50;99.90
9049;DHT22;4559;47.252;9.592;2022-09-06T11:40:39;26.70;99.90
9049;DHT22;4559;47.252;9.592;2022-09-06T11:43:40;26.90;99.90
9049;DHT22;4559;47.252;9.592;2022-09-06T11:46:00;27.20;99.90
9049;DHT22;4559;47.252;9.592;2022-09-06T11:53:20;28.10;99.90
9049;DHT22;4559;47.252;9.592;2022-09-06T11:55:48;28.40;99.90
9049;DHT22;4559;47.252;9.592;2022-09-06T12:00:44;28.90;99.90
9049;DHT22;4559;47.252;9.592;2022-09-06T12:06:33;29.00;99.90
9049;DHT22;4559;47.252;9.592;2022-09-06T12:09:00;28.90;99.10
9049;DHT22;4559;47.252;9.592;2022-09-06T12:11:36;28.90;99.90
9049;DHT22;4559;47.252;9.592;2022-09-06T12:25:50;28.50;99.80
9049;DHT22;4559;47.252;9.592;2022-09-06T12:27:54;28.50;99.60
9049;DHT22;4559;47.252;9.592;2022-09-06T12:30:52;28.40;99.80
9049;DHT22;4559;47.252;9.592;2022-09-06T12:33:31;28.40;99.90
9049;DHT22;4559;47.252;9.592;2022-09-06T12:36:16;28.40;99.90
9049;DHT22;4559;47.252;9.592;2022-09-06T12:41:20;28.30;99.90
9049;DHT22;4559;47.252;9.592;2022-09-06T12:43:47;28.50;99.90
9049;DHT22;4559;47.252;9.592;2022-09-06T12:46:13;28.70;99.80
9049;DHT22;4559;47.252;9.592;2022-09-06T12:48:39;29.00;99.20
9049;DHT22;4559;47.252;9.592;2022-09-06T12:51:18;29.10;99.00
9049;DHT22;4559;47.252;9.592;2022-09-06T12:53:52;29.00;98.80
9049;DHT22;4559;47.252;9.592;2022-09-06T12:56:22;28.90;98.40
9049;DHT22;4559;47.252;9.592;2022-09-06T12:58:48;28.90;98.40
9049;DHT22;4559;47.252;9.592;2022-09-06T13:01:23;28.80;98.40
9049;DHT22;4559;47.252;9.592;2022-09-06T13:06:20;28.40;98.80
9049;DHT22;4559;47.252;9.592;2022-09-06T13:08:52;28.20;99.30
9049;DHT22;4559;47.252;9.592;2022-09-06T13:11:26;28.00;99.80
9049;DHT22;4559;47.252;9.592;2022-09-06T13:13:53;27.90;99.90
9049;DHT22;4559;47.252;9.592;2022-09-06T13:16:24;27.90;99.90
9049;DHT22;4559;47.252;9.592;2022-09-06T13:18:51;27.90;99.90
9049;DHT22;4559;47.252;9.592;2022-09-06T13:21:31;27.90;99.90
9049;DHT22;4559;47.252;9.592;2022-09-06T13:23:57;27.80;99.90
9049;DHT22;4559;47.252;9.592;2022-09-06T13:26:34;27.90;99.90
9049;DHT22;4559;47.252;9.592;2022-09-06T13:31:47;27.70;99.90
9049;DHT22;4559;47.252;9.592;2022-09-06T13:34:31;27.50;99.90
9049;DHT22;4559;47.252;9.592;2022-09-06T13:37:04;27.30;99.90
9049;DHT22;4559;47.252;9.592;2022-09-06T13:39:33;27.20;99.90
9049;DHT22;4559;47.252;9.592;2022-09-06T13:44:31;26.90;99.90
9049;DHT22;4559;47.252;9.592;2022-09-06T13:46:57;26.80;99.90
9049;DHT22;4559;47.252;9.592;2022-09-06T13:49:23;26.60;99.90
9049;DHT22;4559;47.252;9.592;2022-09-06T13:51:51;26.50;99.90
9049;DHT22;4559;47.252;9.592;2022-09-06T13:54:17;26.40;99.90
9049;DHT22;4559;47.252;9.592;2022-09-06T13:56:42;26.30;99.90
9049;DHT22;4559;47.252;9.592;2022-09-06T13:59:09;26.20;99.90
9049;DHT22;4559;47.252;9.592;2022-09-06T14:01:36;26.10;99.90
9049;DHT22;4559;47.252;9.592;2022-09-06T14:04:02;26.00;99.90
9049;DHT22;4559;47.252;9.592;2022-09-06T14:06:28;25.90;99.90
9049;DHT22;4559;47.252;9.592;2022-09-06T14:08:54;25.80;99.90
9049;DHT22;4559;47.252;9.592;2022-09-06T14:11:20;25.70;99.90
9049;DHT22;4559;47.252;9.592;2022-09-06T14:13:45;25.60;99.90
9049;DHT22;4559;47.252;9.592;2022-09-06T14:16:12;25.50;99.90
9049;DHT22;4559;47.252;9.592;2022-09-06T14:18:38;25.30;99.90
9049;DHT22;4559;47.252;9.592;2022-09-06T14:21:04;25.20;99.90
9049;DHT22;4559;47.252;9.592;2022-09-06T14:23:31;25.20;99.90
9049;DHT22;4559;47.252;9.592;2022-09-06T14:25:59;25.10;99.90
9049;DHT22;4559;47.252;9.592;2022-09-06T14:28:26;25.00;99.90
9049;DHT22;4559;47.252;9.592;2022-09-06T14:30:52;24.90;99.90
9049;DHT22;4559;47.252;9.592;2022-09-06T14:33:18;24.80;99.90
9049;DHT22;4559;47.252;9.592;2022-09-06T14:35:45;24.70;99.90
9049;DHT22;4559;47.252;9.592;2022-09-06T14:38:10;24.60;99.90
9049;DHT22;4559;47.252;9.592;2022-09-06T14:40:39;24.50;99.90
9049;DHT22;4559;47.252;9.592;2022-09-06T14:43:05;24.50;99.90
9049;DHT22;4559;47.252;9.592;2022-09-06T14:45:34;24.50;99.90
9049;DHT22;4559;47.252;9.592;2022-09-06T14:48:00;24.40;99.90
9049;DHT22;4559;47.252;9.592;2022-09-06T14:50:29;24.30;99.90
9049;DHT22;4559;47.252;9.592;2022-09-06T14:52:56;24.20;99.90
9049;DHT22;4559;47.252;9.592;2022-09-06T14:55:21;24.10;99.90
9049;DHT22;4559;47.252;9.592;2022-09-06T14:57:47;24.10;99.90
9049;DHT22;4559;47.252;9.592;2022-09-06T15:00:14;24.00;99.90
9049;DHT22;4559;47.252;9.592;2022-09-06T15:02:39;24.00;99.90
9049;DHT22;4559;47.252;9.592;2022-09-06T15:05:05;23.90;99.90
9049;DHT22;4559;47.252;9.592;2022-09-06T15:07:31;23.80;99.90
9049;DHT22;4559;47.252;9.592;2022-09-06T15:09:57;23.70;99.90
9049;DHT22;4559;47.252;9.592;2022-09-06T15:12:22;23.60;99.90
9049;DHT22;4559;47.252;9.592;2022-09-06T15:14:48;23.50;99.90
9049;DHT22;4559;47.252;9.592;2022-09-06T15:17:14;23.50;99.90
9049;DHT22;4559;47.252;9.592;2022-09-06T15:19:40;23.50;99.90
9049;DHT22;4559;47.252;9.592;2022-09-06T15:22:06;23.40;99.90
9049;DHT22;4559;47.252;9.592;2022-09-06T15:24:32;23.30;99.90
9049;DHT22;4559;47.252;9.592;2022-09-06T15:26:58;23.20;99.90
9049;DHT22;4559;47.252;9.592;2022-09-06T15:29:24;23.10;99.90
9049;DHT22;4559;47.252;9.592;2022-09-06T15:31:52;23.00;99.90
9049;DHT22;4559;47.252;9.592;2022-09-06T15:34:20;23.10;99.90
9049;DHT22;4559;47.252;9.592;2022-09-06T15:36:46;23.00;99.90
9049;DHT22;4559;47.252;9.592;2022-09-06T15:39:12;23.00;99.90
9049;DHT22;4559;47.252;9.592;2022-09-06T15:41:39;23.10;99.90
9049;DHT22;4559;47.252;9.592;2022-09-06T15:44:13;23.10;99.90
9049;DHT22;4559;47.252;9.592;2022-09-06T15:46:55;23.10;99.90
9049;DHT22;4559;47.252;9.592;2022-09-06T15:49:31;23.20;99.90
9049;DHT22;4559;47.252;9.592;2022-09-06T15:51:58;23.30;99.90
9049;DHT22;4559;47.252;9.592;2022-09-06T15:54:25;23.40;99.90
9049;DHT22;4559;47.252;9.592;2022-09-06T15:57:09;23.50;99.90
9049;DHT22;4559;47.252;9.592;2022-09-06T15:59:36;23.50;99.90
9049;DHT22;4559;47.252;9.592;2022-09-06T16:02:01;23.60;99.90
9049;DHT22;4559;47.252;9.592;2022-09-06T16:04:27;23.60;99.90
9049;DHT22;4559;47.252;9.592;2022-09-06T16:06:53;23.60;99.90
9049;DHT22;4559;47.252;9.592;2022-09-06T16:09:18;23.60;99.90
9049;DHT22;4559;47.252;9.592;2022-09-06T16:11:44;23.50;99.90
9049;DHT22;4559;47.252;9.592;2022-09-06T16:14:12;23.50;99.90
9049;DHT22;4559;47.252;9.592;2022-09-06T16:16:38;23.60;99.90
9049;DHT22;4559;47.252;9.592;2022-09-06T16:19:04;23.60;99.90
9049;DHT22;4559;47.252;9.592;2022-09-06T16:21:32;23.70;99.90
9049;DHT22;4559;47.252;9.592;2022-09-06T16:24:00;23.70;99.90
9049;DHT22;4559;47.252;9.592;2022-09-06T16:26:32;23.70;99.90
9049;DHT22;4559;47.252;9.592;2022-09-06T16:29:01;23.80;99.90
9049;DHT22;4559;47.252;9.592;2022-09-06T16:31:27;23.80;99.90
9049;DHT22;4559;47.252;9.592;2022-09-06T16:33:54;23.90;99.90
9049;DHT22;4559;47.252;9.592;2022-09-06T16:36:21;23.90;99.90
9049;DHT22;4559;47.252;9.592;2022-09-06T16:38:47;23.90;99.90
9049;DHT22;4559;47.252;9.592;2022-09-06T16:43:42;23.90;99.90
9049;DHT22;4559;47.252;9.592;2022-09-06T16:46:08;23.90;99.90
9049;DHT22;4559;47.252;9.592;2022-09-06T16:48:34;23.90;99.90
9049;DHT22;4559;47.252;9.592;2022-09-06T16:51:17;23.80;99.90
9049;DHT22;4559;47.252;9.592;2022-09-06T16:53:44;23.70;99.90
9049;DHT22;4559;47.252;9.592;2022-09-06T16:56:13;23.60;99.90
9049;DHT22;4559;47.252;9.592;2022-09-06T16:58:40;23.60;99.90
9049;DHT22;4559;47.252;9.592;2022-09-06T17:01:07;23.50;99.90
9049;DHT22;4559;47.252;9.592;2022-09-06T17:03:34;23.50;99.90
9049;DHT22;4559;47.252;9.592;2022-09-06T17:06:00;23.40;99.90
9049;DHT22;4559;47.252;9.592;2022-09-06T17:08:26;23.40;99.90
9049;DHT22;4559;47.252;9.592;2022-09-06T17:10:52;23.30;99.90
9049;DHT22;4559;47.252;9.592;2022-09-06T17:13:18;23.20;99.90
9049;DHT22;4559;47.252;9.592;2022-09-06T17:15:51;23.10;99.90
9049;DHT22;4559;47.252;9.592;2022-09-06T17:18:35;23.10;99.90
9049;DHT22;4559;47.252;9.592;2022-09-06T17:21:01;23.00;99.90
9049;DHT22;4559;47.252;9.592;2022-09-06T17:23:30;22.90;99.90
9049;DHT22;4559;47.252;9.592;2022-09-06T17:25:56;22.80;99.90
9049;DHT22;4559;47.252;9.592;2022-09-06T17:28:22;22.70;99.90
9049;DHT22;4559;47.252;9.592;2022-09-06T17:30:51;22.60;99.90
9049;DHT22;4559;47.252;9.592;2022-09-06T17:33:18;22.50;99.90
9049;DHT22;4559;47.252;9.592;2022-09-06T17:35:46;22.40;99.90
9049;DHT22;4559;47.252;9.592;2022-09-06T17:38:13;22.30;99.90
9049;DHT22;4559;47.252;9.592;2022-09-06T17:40:39;22.20;99.90
9049;DHT22;4559;47.252;9.592;2022-09-06T17:43:05;22.10;99.90
9049;DHT22;4559;47.252;9.592;2022-09-06T17:45:37;22.00;99.90
9049;DHT22;4559;47.252;9.592;2022-09-06T17:48:03;22.00;99.90
9049;DHT22;4559;47.252;9.592;2022-09-06T17:50:30;21.90;99.90
9049;DHT22;4559;47.252;9.592;2022-09-06T17:52:56;21.80;99.90
9049;DHT22;4559;47.252;9.592;2022-09-06T17:55:21;21.80;99.90